| time (UTC) | temp F | wind direction | speed MPH | gust MPH | rain 1hr in | rain 24hr in | rain mn in | humidity % | barometer mb |
| 20260510021458 | 47 | 155 | 3.0 | 6.0 | 0.00 | 0.51 | 0.51 | 89 | 1009.9 |
| 20260510015958 | 47 | 150 | 2.0 | 5.0 | 0.00 | 0.51 | 0.51 | 89 | 1010.0 |
| 20260510012958 | 47 | 135 | 2.0 | 4.0 | 0.00 | 0.51 | 0.51 | 88 | 1009.8 |
| 20260510011457 | 47 | 162 | 1.0 | 3.0 | 0.00 | 0.51 | 0.51 | 88 | 1009.4 |
| 20260510005958 | 47 | 202 | 1.0 | 5.0 | 0.00 | 0.51 | 0.51 | 87 | 1009.5 |
| 20260510004457 | 47 | 222 | 0.0 | 1.0 | 0.00 | 0.52 | 0.51 | 86 | 1009.2 |
| 20260510002957 | 48 | 165 | 1.0 | 3.0 | 0.00 | 0.52 | 0.51 | 85 | 1009.2 |
| 20260510001457 | 50 | 152 | 1.0 | 5.0 | 0.00 | 0.52 | 0.51 | 84 | 1009.1 |
| 20260509235959 | 51 | 191 | 2.0 | 5.0 | 0.00 | 0.52 | 0.51 | 83 | 1009.2 |
| 20260509234458 | 51 | 111 | 2.0 | 4.0 | 0.00 | 0.54 | 0.51 | 83 | 1008.9 |
| 20260509232957 | 52 | 210 | 2.0 | 7.0 | 0.00 | 0.54 | 0.51 | 82 | 1008.6 |
| 20260509225959 | 53 | 129 | 3.0 | 8.0 | 0.00 | 0.54 | 0.51 | 81 | 1008.4 |
| 20260509224458 | 53 | 195 | 3.0 | 13.0 | 0.00 | 0.54 | 0.51 | 80 | 1008.2 |
| 20260509222957 | 54 | 280 | 3.0 | 9.0 | 0.00 | 0.54 | 0.51 | 81 | 1008.5 |
| 20260509220000 | 55 | 88 | 2.0 | 6.0 | 0.00 | 0.54 | 0.51 | 85 | 1008.7 |
| 20260509214458 | 53 | 254 | 3.0 | 7.0 | 0.00 | 0.54 | 0.51 | 87 | 1008.8 |
| 20260509212959 | 52 | 229 | 3.0 | 9.0 | 0.00 | 0.54 | 0.51 | 88 | 1008.9 |
| 20260509205958 | 51 | 204 | 4.0 | 11.0 | 0.00 | 0.54 | 0.51 | 89 | 1009.2 |
| 20260509204457 | 51 | 218 | 4.0 | 11.0 | 0.01 | 0.54 | 0.51 | 89 | 1009.3 |
| 20260509202957 | 51 | 246 | 4.0 | 12.0 | 0.01 | 0.54 | 0.51 | 90 | 1009.2 |
| 20260509201458 | 51 | 259 | 4.0 | 12.0 | 0.03 | 0.54 | 0.51 | 90 | 1009.2 |
| 20260509200000 | 50 | 229 | 4.0 | 10.0 | 0.08 | 0.54 | 0.51 | 91 | 1009.2 |
| 20260509194458 | 50 | 212 | 3.0 | 8.0 | 0.10 | 0.54 | 0.50 | 91 | 1009.5 |
| 20260509185959 | 49 | 238 | 5.0 | 655.0 | 1.12 | 0.00 | 0.43 | 90 | |
| 20260509184457 | 49 | 203 | 3.0 | 12.0 | 0.10 | 0.44 | 0.40 | 91 | 1010.3 |
| 20260509182958 | 48 | 134 | 3.0 | 7.0 | 0.10 | 0.42 | 0.38 | 91 | 1010.4 |
| 20260509181457 | 48 | 172 | 3.0 | 10.0 | 0.11 | 0.39 | 0.35 | 91 | 1010.5 |
| 20260509180000 | 48 | 181 | 3.0 | 11.0 | 0.11 | 0.36 | 0.32 | 91 | 1010.5 |
| 20260509174457 | 48 | 128 | 3.0 | 8.0 | 0.10 | 0.34 | 0.30 | 91 | 1010.3 |
| 20260509172957 | 48 | 205 | 3.0 | 11.0 | 0.08 | 0.31 | 0.27 | 91 | 1010.3 |
| 20260509171458 | 49 | 129 | 4.0 | 9.0 | 0.06 | 0.28 | 0.24 | 91 | 1010.3 |
| 20260509170000 | 49 | 134 | 3.0 | 6.0 | 0.04 | 0.25 | 0.21 | 91 | 1010.2 |
| 20260509164457 | 49 | 153 | 3.0 | 8.0 | 0.04 | 0.24 | 0.20 | 91 | 1010.4 |
| 20260509161458 | 48 | 132 | 5.0 | 14.0 | 0.03 | 0.22 | 0.18 | 91 | 1010.5 |
| 20260509155959 | 48 | 136 | 4.0 | 11.0 | 0.03 | 0.21 | 0.17 | 91 | 1010.6 |
| 20260509154457 | 48 | 154 | 4.0 | 9.0 | 0.03 | 0.20 | 0.16 | 91 | 1010.5 |
| 20260509152957 | 49 | 186 | 4.0 | 9.0 | 0.03 | 0.19 | 0.15 | 91 | 1010.7 |
| 20260509145959 | 48 | 150 | 3.0 | 6.0 | 0.04 | 0.18 | 0.14 | 91 | 1010.7 |
| 20260509144457 | 47 | 103 | 4.0 | 7.0 | 0.03 | 0.17 | 0.13 | 91 | 1010.5 |
| 20260509142957 | 47 | 157 | 4.0 | 11.0 | 0.03 | 0.16 | 0.12 | 91 | 1011.2 |
| 20260509141457 | 47 | 139 | 4.0 | 10.0 | 0.03 | 0.15 | 0.11 | 91 | 1011.1 |
| 20260509135957 | 47 | 162 | 2.0 | 6.0 | 0.02 | 0.14 | 0.10 | 91 | 1010.7 |
| 20260509133004 | 47 | 154 | 2.0 | 4.0 | 0.02 | 0.13 | 0.09 | 91 | 1010.6 |
| 20260509131457 | 47 | 122 | 2.0 | 4.0 | 0.01 | 0.12 | 0.08 | 91 | 1010.8 |
| 20260509122957 | 46 | 146 | 2.0 | 6.0 | 0.02 | 0.11 | 0.07 | 91 | 1010.8 |
| 20260509121457 | 46 | 116 | 1.0 | 3.0 | 0.02 | 0.11 | 0.07 | 91 | 1010.6 |
| 20260509115957 | 46 | 113 | 2.0 | 4.0 | 0.02 | 0.10 | 0.06 | 91 | 1010.8 |
| 20260509114457 | 45 | 150 | 1.0 | 3.0 | 0.02 | 0.10 | 0.06 | 91 | 1010.8 |
| 20260509112957 | 45 | 141 | 1.0 | 3.0 | 0.01 | 0.09 | 0.05 | 91 | 1010.9 |
| 20260509111457 | 45 | 143 | 1.0 | 5.0 | 0.02 | 0.09 | 0.05 | 91 | 1010.8 |
| 20260509105957 | 45 | 159 | 2.0 | 5.0 | 0.01 | 0.08 | 0.04 | 92 | 1010.8 |
| 20260509104457 | 44 | 207 | 1.0 | 3.0 | 0.01 | 0.08 | 0.04 | 92 | 1010.7 |
| 20260509102956 | 44 | 154 | 0.0 | 2.0 | 0.01 | 0.08 | 0.04 | 92 | 1010.6 |
| 20260509101457 | 44 | 277 | 1.0 | 2.0 | 0.00 | 0.07 | 0.03 | 92 | 1010.7 |
| 20260509100000 | 43 | 115 | 1.0 | 3.0 | 0.00 | 0.07 | 0.03 | 91 | 1010.5 |
| 20260509094458 | 43 | 146 | 0.0 | 1.0 | 0.00 | 0.07 | 0.03 | 91 | 1010.4 |
| 20260509092958 | 43 | 146 | 0.0 | 1.0 | 0.00 | 0.07 | 0.03 | 91 | 1010.6 |
| 20260509091458 | 43 | 147 | 0.0 | 1.0 | 0.00 | 0.07 | 0.03 | 91 | 1010.7 |
| 20260509084458 | 44 | 147 | 0.0 | 1.0 | 0.00 | 0.07 | 0.03 | 91 | 1011.2 |
| 20260509082956 | 44 | 147 | 0.0 | 1.0 | 0.00 | 0.07 | 0.03 | 91 | 1011.5 |
| 20260509081457 | 44 | 146 | 0.0 | 2.0 | 0.00 | 0.07 | 0.03 | 91 | 1011.7 |
| 20260509075957 | 44 | 160 | 1.0 | 3.0 | 0.00 | 0.08 | 0.03 | 91 | 1011.6 |
| 20260509074457 | 44 | 136 | 0.0 | 1.0 | 0.00 | 0.08 | 0.03 | 91 | 1011.4 |
| 20260509065959 | 44 | 137 | 0.0 | 2.0 | 0.01 | 0.08 | 0.03 | 91 | 1011.2 |
| 20260509064458 | 44 | 358 | 1.0 | 2.0 | 0.02 | 0.08 | 0.03 | 91 | 1011.1 |
| 20260509062958 | 44 | 332 | 0.0 | 1.0 | 0.03 | 0.08 | 0.03 | 91 | 1011.7 |
| 20260509061459 | 44 | 248 | 0.0 | 1.0 | 0.03 | 0.08 | 0.03 | 91 | 1012.0 |
| 20260509060000 | 44 | 242 | 0.0 | 3.0 | 0.02 | 0.07 | 0.02 | 91 | 1012.4 |
| 20260509054458 | 43 | 198 | 1.0 | 4.0 | 0.01 | 0.08 | 0.01 | 90 | 1012.6 |
| 20260509051459 | 43 | 162 | 1.0 | 3.0 | 0.00 | 0.07 | 0.00 | 90 | 1012.1 |
| 20260509045959 | 43 | 173 | 0.0 | 1.0 | 0.00 | 0.07 | 0.00 | 90 | 1011.5 |
| 20260509044459 | 43 | 244 | 0.0 | 1.0 | 0.00 | 0.14 | 0.00 | 90 | 1011.8 |
| 20260509042959 | 43 | 245 | 0.0 | 1.0 | 0.00 | 0.14 | 0.00 | 90 | 1011.6 |
| 20260509041459 | 43 | 245 | 0.0 | 1.0 | 0.00 | 0.14 | 0.00 | 90 | 1012.0 |
| 20260509040002 | 42 | 245 | 0.0 | 1.0 | 0.00 | 0.14 | 0.00 | 90 | 1012.0 |
| 20260509034459 | 42 | 243 | 0.0 | 0.0 | 0.00 | 0.19 | 0.14 | 89 | 1012.0 |
| 20260509032959 | 41 | 245 | 0.0 | 1.0 | 0.00 | 0.19 | 0.14 | 89 | 1012.0 |
| 20260509031458 | 41 | 245 | 0.0 | 0.0 | 0.00 | 0.19 | 0.14 | 89 | 1012.4 |
| 20260509025959 | 42 | 245 | 0.0 | 1.0 | 0.00 | 0.19 | 0.14 | 88 | 1012.4 |
| 20260509024457 | 42 | 245 | 1.0 | 1.0 | 0.00 | 0.19 | 0.14 | 88 | 1012.0 |
| 20260509022957 | 42 | 243 | 0.0 | 0.0 | 0.00 | 0.19 | 0.14 | 87 | 1012.0 |